sensor_id;sensor_type;location;lat;lon;timestamp;pressure;altitude;pressure_sealevel;temperature;humidity
7433;BME280;32233;49.500;7.764;2023-05-21T00:02:20;98268.63;;;12.92;100.00
7433;BME280;32233;49.500;7.764;2023-05-21T00:04:47;98262.16;;;12.88;100.00
7433;BME280;32233;49.500;7.764;2023-05-21T00:07:14;98254.06;;;12.83;100.00
7433;BME280;32233;49.500;7.764;2023-05-21T00:09:40;98245.00;;;12.91;100.00
7433;BME280;32233;49.500;7.764;2023-05-21T00:12:08;98246.66;;;12.85;100.00
7433;BME280;32233;49.500;7.764;2023-05-21T00:14:35;98244.63;;;12.87;100.00
7433;BME280;32233;49.500;7.764;2023-05-21T00:17:01;98249.47;;;13.08;100.00
7433;BME280;32233;49.500;7.764;2023-05-21T00:19:28;98247.56;;;12.97;100.00
7433;BME280;32233;49.500;7.764;2023-05-21T00:21:55;98243.63;;;12.81;100.00
7433;BME280;32233;49.500;7.764;2023-05-21T00:24:22;98242.09;;;12.92;100.00
7433;BME280;32233;49.500;7.764;2023-05-21T00:26:49;98225.81;;;12.70;100.00
7433;BME280;32233;49.500;7.764;2023-05-21T00:29:16;98243.50;;;12.58;100.00
7433;BME280;32233;49.500;7.764;2023-05-21T00:31:42;98233.97;;;12.50;100.00
7433;BME280;32233;49.500;7.764;2023-05-21T00:34:09;98234.72;;;12.57;100.00
7433;BME280;32233;49.500;7.764;2023-05-21T00:36:36;98228.78;;;12.62;100.00
7433;BME280;32233;49.500;7.764;2023-05-21T00:39:03;98238.56;;;12.61;100.00
7433;BME280;32233;49.500;7.764;2023-05-21T00:41:30;98230.28;;;12.51;100.00
7433;BME280;32233;49.500;7.764;2023-05-21T00:43:56;98226.97;;;12.56;100.00
7433;BME280;32233;49.500;7.764;2023-05-21T00:46:25;98225.94;;;12.38;100.00
7433;BME280;32233;49.500;7.764;2023-05-21T00:48:53;98234.47;;;12.40;100.00
7433;BME280;32233;49.500;7.764;2023-05-21T00:51:23;98227.91;;;12.25;100.00
7433;BME280;32233;49.500;7.764;2023-05-21T00:53:51;98227.25;;;12.29;100.00
7433;BME280;32233;49.500;7.764;2023-05-21T00:56:19;98220.00;;;12.18;100.00
7433;BME280;32233;49.500;7.764;2023-05-21T00:58:49;98223.13;;;12.33;100.00
7433;BME280;32233;49.500;7.764;2023-05-21T01:01:17;98212.34;;;12.28;100.00
7433;BME280;32233;49.500;7.764;2023-05-21T01:03:44;98215.84;;;12.29;100.00
7433;BME280;32233;49.500;7.764;2023-05-21T01:06:14;98223.88;;;12.15;100.00
7433;BME280;32233;49.500;7.764;2023-05-21T01:08:41;98218.84;;;12.32;100.00
7433;BME280;32233;49.500;7.764;2023-05-21T01:11:08;98219.72;;;12.26;100.00
7433;BME280;32233;49.500;7.764;2023-05-21T01:13:38;98214.09;;;12.16;100.00
7433;BME280;32233;49.500;7.764;2023-05-21T01:16:06;98218.16;;;12.19;100.00
7433;BME280;32233;49.500;7.764;2023-05-21T01:18:34;98211.22;;;12.18;100.00
7433;BME280;32233;49.500;7.764;2023-05-21T01:21:03;98203.59;;;12.28;100.00
7433;BME280;32233;49.500;7.764;2023-05-21T01:23:30;98204.59;;;12.08;100.00
7433;BME280;32233;49.500;7.764;2023-05-21T01:25:57;98200.81;;;11.98;100.00
7433;BME280;32233;49.500;7.764;2023-05-21T01:28:23;98198.16;;;11.98;100.00
7433;BME280;32233;49.500;7.764;2023-05-21T01:30:50;98190.09;;;11.86;100.00
7433;BME280;32233;49.500;7.764;2023-05-21T01:33:21;98193.97;;;11.83;100.00
7433;BME280;32233;49.500;7.764;2023-05-21T01:36:07;98178.91;;;11.77;100.00
7433;BME280;32233;49.500;7.764;2023-05-21T01:38:42;98192.38;;;11.76;100.00
7433;BME280;32233;49.500;7.764;2023-05-21T01:41:13;98184.75;;;11.93;100.00
7433;BME280;32233;49.500;7.764;2023-05-21T01:43:44;98180.78;;;12.02;100.00
7433;BME280;32233;49.500;7.764;2023-05-21T01:46:14;98175.53;;;11.95;100.00
7433;BME280;32233;49.500;7.764;2023-05-21T01:48:43;98178.00;;;11.97;100.00
7433;BME280;32233;49.500;7.764;2023-05-21T01:51:10;98176.97;;;11.98;100.00
7433;BME280;32233;49.500;7.764;2023-05-21T01:53:39;98186.09;;;11.70;100.00
7433;BME280;32233;49.500;7.764;2023-05-21T01:56:07;98180.81;;;11.70;100.00
7433;BME280;32233;49.500;7.764;2023-05-21T01:58:34;98179.97;;;11.76;100.00
7433;BME280;32233;49.500;7.764;2023-05-21T02:01:01;98172.91;;;11.95;100.00
7433;BME280;32233;49.500;7.764;2023-05-21T02:03:29;98179.66;;;11.91;100.00
7433;BME280;32233;49.500;7.764;2023-05-21T02:05:57;98189.25;;;11.92;100.00
7433;BME280;32233;49.500;7.764;2023-05-21T02:08:24;98169.88;;;11.92;100.00
7433;BME280;32233;49.500;7.764;2023-05-21T02:10:51;98176.69;;;11.74;100.00
7433;BME280;32233;49.500;7.764;2023-05-21T02:13:18;98175.56;;;11.63;100.00
7433;BME280;32233;49.500;7.764;2023-05-21T02:15:49;98174.88;;;11.43;100.00
7433;BME280;32233;49.500;7.764;2023-05-21T02:18:17;98179.84;;;11.64;100.00
7433;BME280;32233;49.500;7.764;2023-05-21T02:20:44;98178.91;;;11.52;100.00
7433;BME280;32233;49.500;7.764;2023-05-21T02:23:11;98173.19;;;11.55;100.00
7433;BME280;32233;49.500;7.764;2023-05-21T02:25:38;98168.66;;;11.31;100.00
7433;BME280;32233;49.500;7.764;2023-05-21T02:28:05;98173.72;;;11.32;100.00
7433;BME280;32233;49.500;7.764;2023-05-21T02:30:33;98174.38;;;11.21;100.00
7433;BME280;32233;49.500;7.764;2023-05-21T02:33:00;98175.41;;;11.20;100.00
7433;BME280;32233;49.500;7.764;2023-05-21T02:35:28;98176.31;;;11.01;100.00
7433;BME280;32233;49.500;7.764;2023-05-21T02:37:55;98168.78;;;10.98;100.00
7433;BME280;32233;49.500;7.764;2023-05-21T02:40:25;98171.88;;;10.95;100.00
7433;BME280;32233;49.500;7.764;2023-05-21T02:42:51;98170.03;;;10.95;100.00
7433;BME280;32233;49.500;7.764;2023-05-21T02:45:20;98164.28;;;11.05;100.00
7433;BME280;32233;49.500;7.764;2023-05-21T02:47:47;98164.28;;;11.05;100.00
7433;BME280;32233;49.500;7.764;2023-05-21T02:50:17;98158.44;;;10.96;100.00
7433;BME280;32233;49.500;7.764;2023-05-21T02:52:50;98157.38;;;11.04;100.00
7433;BME280;32233;49.500;7.764;2023-05-21T02:55:18;98150.50;;;10.96;100.00
7433;BME280;32233;49.500;7.764;2023-05-21T02:57:45;98150.72;;;10.95;100.00
7433;BME280;32233;49.500;7.764;2023-05-21T03:00:13;98154.13;;;11.02;100.00
7433;BME280;32233;49.500;7.764;2023-05-21T03:02:41;98155.56;;;10.98;100.00
7433;BME280;32233;49.500;7.764;2023-05-21T03:05:09;98161.22;;;11.14;100.00
7433;BME280;32233;49.500;7.764;2023-05-21T03:07:36;98158.00;;;11.37;100.00
7433;BME280;32233;49.500;7.764;2023-05-21T03:10:04;98157.28;;;11.24;100.00
7433;BME280;32233;49.500;7.764;2023-05-21T03:12:31;98153.38;;;11.33;100.00
7433;BME280;32233;49.500;7.764;2023-05-21T03:14:58;98145.94;;;11.16;100.00
7433;BME280;32233;49.500;7.764;2023-05-21T03:17:26;98143.94;;;11.05;100.00
7433;BME280;32233;49.500;7.764;2023-05-21T03:19:53;98145.59;;;11.06;100.00
7433;BME280;32233;49.500;7.764;2023-05-21T03:22:20;98142.88;;;11.20;100.00
7433;BME280;32233;49.500;7.764;2023-05-21T03:24:48;98146.19;;;11.40;100.00
7433;BME280;32233;49.500;7.764;2023-05-21T03:27:16;98144.25;;;11.54;100.00
7433;BME280;32233;49.500;7.764;2023-05-21T03:29:44;98151.00;;;11.50;100.00
7433;BME280;32233;49.500;7.764;2023-05-21T03:32:12;98145.56;;;11.45;100.00
7433;BME280;32233;49.500;7.764;2023-05-21T03:34:41;98158.22;;;11.36;100.00
7433;BME280;32233;49.500;7.764;2023-05-21T03:37:08;98163.94;;;11.33;100.00
7433;BME280;32233;49.500;7.764;2023-05-21T03:39:35;98156.41;;;11.36;100.00
7433;BME280;32233;49.500;7.764;2023-05-21T03:42:02;98156.81;;;11.33;100.00
7433;BME280;32233;49.500;7.764;2023-05-21T03:44:46;98148.81;;;11.08;100.00
7433;BME280;32233;49.500;7.764;2023-05-21T03:47:28;98152.91;;;11.04;100.00
7433;BME280;32233;49.500;7.764;2023-05-21T03:49:57;98147.03;;;11.02;100.00
7433;BME280;32233;49.500;7.764;2023-05-21T03:52:24;98143.53;;;11.08;100.00
7433;BME280;32233;49.500;7.764;2023-05-21T03:54:51;98152.81;;;11.24;100.00
7433;BME280;32233;49.500;7.764;2023-05-21T03:57:18;98159.13;;;11.23;100.00
7433;BME280;32233;49.500;7.764;2023-05-21T03:59:46;98160.31;;;11.27;100.00
7433;BME280;32233;49.500;7.764;2023-05-21T04:02:13;98151.66;;;11.45;100.00
7433;BME280;32233;49.500;7.764;2023-05-21T04:04:41;98157.38;;;11.42;100.00
7433;BME280;32233;49.500;7.764;2023-05-21T04:07:09;98155.03;;;11.27;100.00
7433;BME280;32233;49.500;7.764;2023-05-21T04:09:40;98150.47;;;11.41;100.00
7433;BME280;32233;49.500;7.764;2023-05-21T04:12:07;98154.16;;;11.33;100.00
7433;BME280;32233;49.500;7.764;2023-05-21T04:14:35;98151.59;;;11.20;100.00
7433;BME280;32233;49.500;7.764;2023-05-21T04:17:03;98152.94;;;11.36;100.00
7433;BME280;32233;49.500;7.764;2023-05-21T04:19:31;98156.78;;;11.40;100.00
7433;BME280;32233;49.500;7.764;2023-05-21T04:21:59;98153.13;;;11.66;100.00
7433;BME280;32233;49.500;7.764;2023-05-21T04:24:26;98154.47;;;11.75;100.00
7433;BME280;32233;49.500;7.764;2023-05-21T04:27:16;98159.13;;;11.86;100.00
7433;BME280;32233;49.500;7.764;2023-05-21T04:29:43;98157.09;;;11.82;100.00
7433;BME280;32233;49.500;7.764;2023-05-21T04:32:10;98163.00;;;12.09;100.00
7433;BME280;32233;49.500;7.764;2023-05-21T04:34:36;98165.28;;;12.05;100.00
7433;BME280;32233;49.500;7.764;2023-05-21T04:37:04;98167.97;;;11.99;100.00
7433;BME280;32233;49.500;7.764;2023-05-21T04:39:32;98162.38;;;11.88;100.00
7433;BME280;32233;49.500;7.764;2023-05-21T04:42:00;98165.59;;;11.90;100.00
7433;BME280;32233;49.500;7.764;2023-05-21T04:44:28;98171.88;;;11.96;100.00
7433;BME280;32233;49.500;7.764;2023-05-21T04:46:56;98170.69;;;12.17;100.00
7433;BME280;32233;49.500;7.764;2023-05-21T04:49:24;98166.47;;;12.09;100.00
7433;BME280;32233;49.500;7.764;2023-05-21T04:51:50;98172.34;;;12.11;100.00
7433;BME280;32233;49.500;7.764;2023-05-21T04:54:17;98169.41;;;12.20;100.00
7433;BME280;32233;49.500;7.764;2023-05-21T04:56:43;98164.59;;;12.35;100.00
7433;BME280;32233;49.500;7.764;2023-05-21T04:59:10;98168.59;;;12.62;100.00
7433;BME280;32233;49.500;7.764;2023-05-21T05:01:37;98168.19;;;12.77;100.00
7433;BME280;32233;49.500;7.764;2023-05-21T05:04:04;98171.69;;;12.78;100.00
7433;BME280;32233;49.500;7.764;2023-05-21T05:06:31;98172.59;;;13.02;100.00
7433;BME280;32233;49.500;7.764;2023-05-21T05:08:58;98169.75;;;13.03;100.00
7433;BME280;32233;49.500;7.764;2023-05-21T05:11:25;98170.47;;;13.10;100.00
7433;BME280;32233;49.500;7.764;2023-05-21T05:13:51;98178.69;;;13.81;100.00
7433;BME280;32233;49.500;7.764;2023-05-21T05:16:18;98164.28;;;14.59;100.00
7433;BME280;32233;49.500;7.764;2023-05-21T05:18:51;98179.19;;;15.12;98.62
7433;BME280;32233;49.500;7.764;2023-05-21T05:21:19;98172.00;;;14.60;100.00
7433;BME280;32233;49.500;7.764;2023-05-21T05:23:46;98172.78;;;14.84;99.83
7433;BME280;32233;49.500;7.764;2023-05-21T05:26:13;98172.75;;;14.96;98.73
7433;BME280;32233;49.500;7.764;2023-05-21T05:28:39;98175.53;;;15.47;96.61
7433;BME280;32233;49.500;7.764;2023-05-21T05:31:06;98175.81;;;15.62;94.11
7433;BME280;32233;49.500;7.764;2023-05-21T05:33:33;98167.84;;;15.05;97.69
7433;BME280;32233;49.500;7.764;2023-05-21T05:35:59;98171.56;;;15.32;97.76
7433;BME280;32233;49.500;7.764;2023-05-21T05:38:26;98162.66;;;15.84;96.66
7433;BME280;32233;49.500;7.764;2023-05-21T05:40:53;98162.50;;;16.46;87.56
7433;BME280;32233;49.500;7.764;2023-05-21T05:43:20;98162.72;;;17.27;79.01
7433;BME280;32233;49.500;7.764;2023-05-21T05:45:47;98166.34;;;17.43;79.98
7433;BME280;32233;49.500;7.764;2023-05-21T05:48:14;98161.47;;;17.67;77.59
7433;BME280;32233;49.500;7.764;2023-05-21T05:50:43;98157.88;;;17.78;78.61
7433;BME280;32233;49.500;7.764;2023-05-21T05:53:10;98158.13;;;17.50;76.87
7433;BME280;32233;49.500;7.764;2023-05-21T05:55:39;98152.91;;;17.65;79.34
7433;BME280;32233;49.500;7.764;2023-05-21T05:58:06;98161.03;;;17.75;78.56
7433;BME280;32233;49.500;7.764;2023-05-21T06:00:44;98157.16;;;17.88;77.79
7433;BME280;32233;49.500;7.764;2023-05-21T06:03:11;98158.56;;;17.42;80.25
7433;BME280;32233;49.500;7.764;2023-05-21T06:05:40;98164.53;;;17.00;82.92
7433;BME280;32233;49.500;7.764;2023-05-21T06:08:06;98169.34;;;17.25;82.30
7433;BME280;32233;49.500;7.764;2023-05-21T06:10:33;98156.97;;;17.41;81.55
7433;BME280;32233;49.500;7.764;2023-05-21T06:13:00;98171.00;;;17.80;78.63
7433;BME280;32233;49.500;7.764;2023-05-21T06:15:26;98168.69;;;17.94;77.77
7433;BME280;32233;49.500;7.764;2023-05-21T06:17:53;98166.31;;;17.97;79.67
7433;BME280;32233;49.500;7.764;2023-05-21T06:20:19;98171.53;;;18.14;77.39
7433;BME280;32233;49.500;7.764;2023-05-21T06:22:46;98166.44;;;18.13;77.48
7433;BME280;32233;49.500;7.764;2023-05-21T06:25:12;98163.53;;;17.87;78.05
7433;BME280;32233;49.500;7.764;2023-05-21T06:27:39;98162.91;;;18.07;77.86
7433;BME280;32233;49.500;7.764;2023-05-21T06:30:14;98161.00;;;18.02;77.29
7433;BME280;32233;49.500;7.764;2023-05-21T06:32:42;98158.94;;;17.77;78.48
7433;BME280;32233;49.500;7.764;2023-05-21T06:35:08;98164.34;;;17.88;79.44
7433;BME280;32233;49.500;7.764;2023-05-21T06:37:35;98154.09;;;18.12;78.00
7433;BME280;32233;49.500;7.764;2023-05-21T06:40:02;98158.13;;;18.09;76.63
7433;BME280;32233;49.500;7.764;2023-05-21T06:42:30;98162.03;;;18.34;77.21
7433;BME280;32233;49.500;7.764;2023-05-21T06:45:22;98159.25;;;18.66;75.27
7433;BME280;32233;49.500;7.764;2023-05-21T06:47:52;98152.69;;;18.89;72.98
7433;BME280;32233;49.500;7.764;2023-05-21T06:50:19;98151.88;;;18.83;74.01
7433;BME280;32233;49.500;7.764;2023-05-21T06:52:45;98155.75;;;18.65;74.66
7433;BME280;32233;49.500;7.764;2023-05-21T06:55:12;98160.78;;;18.51;77.27
7433;BME280;32233;49.500;7.764;2023-05-21T06:57:57;98163.97;;;18.48;76.27
7433;BME280;32233;49.500;7.764;2023-05-21T07:00:24;98158.84;;;18.42;75.78
7433;BME280;32233;49.500;7.764;2023-05-21T07:02:51;98160.84;;;18.19;78.42
7433;BME280;32233;49.500;7.764;2023-05-21T07:05:19;98168.84;;;18.14;78.43
7433;BME280;32233;49.500;7.764;2023-05-21T07:07:45;98165.25;;;17.98;78.54
7433;BME280;32233;49.500;7.764;2023-05-21T07:10:12;98171.72;;;18.07;77.96
7433;BME280;32233;49.500;7.764;2023-05-21T07:12:39;98165.97;;;18.26;77.76
7433;BME280;32233;49.500;7.764;2023-05-21T07:15:07;98164.81;;;18.54;76.80
7433;BME280;32233;49.500;7.764;2023-05-21T07:17:34;98161.97;;;18.71;75.31
7433;BME280;32233;49.500;7.764;2023-05-21T07:20:01;98161.72;;;18.72;76.01
7433;BME280;32233;49.500;7.764;2023-05-21T07:22:28;98157.63;;;18.65;75.31
7433;BME280;32233;49.500;7.764;2023-05-21T07:24:55;98162.03;;;18.34;77.78
7433;BME280;32233;49.500;7.764;2023-05-21T07:27:22;98155.13;;;18.43;77.51
7433;BME280;32233;49.500;7.764;2023-05-21T07:29:52;98159.41;;;18.49;77.44
7433;BME280;32233;49.500;7.764;2023-05-21T07:32:19;98157.16;;;18.73;76.28
7433;BME280;32233;49.500;7.764;2023-05-21T07:34:47;98162.66;;;18.56;75.90
7433;BME280;32233;49.500;7.764;2023-05-21T07:37:13;98164.84;;;18.59;76.24
7433;BME280;32233;49.500;7.764;2023-05-21T07:39:40;98162.47;;;18.68;75.34
7433;BME280;32233;49.500;7.764;2023-05-21T07:42:07;98160.97;;;18.82;76.55
7433;BME280;32233;49.500;7.764;2023-05-21T07:44:34;98160.06;;;18.66;75.48
7433;BME280;32233;49.500;7.764;2023-05-21T07:47:01;98152.38;;;18.80;74.09
7433;BME280;32233;49.500;7.764;2023-05-21T07:49:27;98150.75;;;18.74;75.92
7433;BME280;32233;49.500;7.764;2023-05-21T07:51:54;98148.91;;;18.79;75.71
7433;BME280;32233;49.500;7.764;2023-05-21T07:54:21;98144.34;;;18.85;76.44
7433;BME280;32233;49.500;7.764;2023-05-21T07:56:48;98157.53;;;19.02;76.14
7433;BME280;32233;49.500;7.764;2023-05-21T07:59:30;98152.22;;;19.07;74.84
7433;BME280;32233;49.500;7.764;2023-05-21T08:01:57;98148.56;;;18.66;74.47
7433;BME280;32233;49.500;7.764;2023-05-21T08:04:23;98150.41;;;18.65;76.25
7433;BME280;32233;49.500;7.764;2023-05-21T08:06:50;98156.75;;;19.01;72.39
7433;BME280;32233;49.500;7.764;2023-05-21T08:09:17;98159.19;;;18.55;74.21
7433;BME280;32233;49.500;7.764;2023-05-21T08:11:45;98152.41;;;18.85;74.38
7433;BME280;32233;49.500;7.764;2023-05-21T08:14:11;98146.75;;;18.76;74.52
7433;BME280;32233;49.500;7.764;2023-05-21T08:16:38;98149.19;;;18.83;74.49
7433;BME280;32233;49.500;7.764;2023-05-21T08:19:05;98141.06;;;18.68;75.07
7433;BME280;32233;49.500;7.764;2023-05-21T08:21:31;98150.66;;;18.64;75.04
7433;BME280;32233;49.500;7.764;2023-05-21T08:23:59;98140.53;;;18.66;74.26
7433;BME280;32233;49.500;7.764;2023-05-21T08:26:26;98140.84;;;18.74;72.85
7433;BME280;32233;49.500;7.764;2023-05-21T08:28:53;98143.25;;;18.76;72.88
7433;BME280;32233;49.500;7.764;2023-05-21T08:31:19;98146.00;;;18.86;76.31
7433;BME280;32233;49.500;7.764;2023-05-21T08:33:50;98139.22;;;18.73;73.55
7433;BME280;32233;49.500;7.764;2023-05-21T08:36:23;98135.00;;;18.88;74.56
7433;BME280;32233;49.500;7.764;2023-05-21T08:38:55;98137.75;;;19.13;74.44
7433;BME280;32233;49.500;7.764;2023-05-21T08:41:34;98143.34;;;19.01;72.32
7433;BME280;32233;49.500;7.764;2023-05-21T08:44:01;98145.28;;;19.16;72.03
7433;BME280;32233;49.500;7.764;2023-05-21T08:46:32;98140.44;;;19.13;73.99
7433;BME280;32233;49.500;7.764;2023-05-21T08:49:01;98140.97;;;19.10;73.15
7433;BME280;32233;49.500;7.764;2023-05-21T08:51:29;98139.91;;;19.21;72.02
7433;BME280;32233;49.500;7.764;2023-05-21T08:53:56;98137.75;;;19.18;73.09
7433;BME280;32233;49.500;7.764;2023-05-21T08:56:25;98144.78;;;19.40;72.25
7433;BME280;32233;49.500;7.764;2023-05-21T08:58:55;98140.47;;;19.39;69.78
7433;BME280;32233;49.500;7.764;2023-05-21T09:01:26;98145.31;;;19.42;71.31
7433;BME280;32233;49.500;7.764;2023-05-21T09:04:03;98144.75;;;19.29;71.45
7433;BME280;32233;49.500;7.764;2023-05-21T09:06:47;98147.47;;;19.55;69.96
7433;BME280;32233;49.500;7.764;2023-05-21T09:09:27;98140.19;;;19.25;72.37
7433;BME280;32233;49.500;7.764;2023-05-21T09:11:57;98138.69;;;19.70;70.51
7433;BME280;32233;49.500;7.764;2023-05-21T09:14:24;98148.88;;;19.73;72.03
7433;BME280;32233;49.500;7.764;2023-05-21T09:16:59;98132.50;;;20.00;73.18
7433;BME280;32233;49.500;7.764;2023-05-21T09:19:26;98130.09;;;19.93;70.54
7433;BME280;32233;49.500;7.764;2023-05-21T09:22:03;98132.50;;;19.95;73.16
7433;BME280;32233;49.500;7.764;2023-05-21T09:24:31;98130.09;;;19.78;73.19
7433;BME280;32233;49.500;7.764;2023-05-21T09:27:02;98137.34;;;19.83;72.75
7433;BME280;32233;49.500;7.764;2023-05-21T09:29:32;98133.31;;;19.90;75.04
7433;BME280;32233;49.500;7.764;2023-05-21T09:32:05;98139.22;;;20.02;73.51
7433;BME280;32233;49.500;7.764;2023-05-21T09:34:35;98130.34;;;20.07;73.15
7433;BME280;32233;49.500;7.764;2023-05-21T09:37:02;98130.59;;;20.11;75.76
7433;BME280;32233;49.500;7.764;2023-05-21T09:39:34;98128.44;;;20.23;73.06
7433;BME280;32233;49.500;7.764;2023-05-21T09:42:02;98133.28;;;20.26;72.77
7433;BME280;32233;49.500;7.764;2023-05-21T09:44:30;98138.63;;;20.31;73.03
7433;BME280;32233;49.500;7.764;2023-05-21T09:46:58;98130.59;;;20.11;69.01
7433;BME280;32233;49.500;7.764;2023-05-21T09:49:25;98133.56;;;20.04;72.99
7433;BME280;32233;49.500;7.764;2023-05-21T09:51:56;98128.69;;;20.32;72.09
7433;BME280;32233;49.500;7.764;2023-05-21T09:54:24;98135.63;;;20.48;71.93
7433;BME280;32233;49.500;7.764;2023-05-21T09:56:51;98136.97;;;20.61;68.57
7433;BME280;32233;49.500;7.764;2023-05-21T09:59:19;98132.91;;;20.68;70.50
7433;BME280;32233;49.500;7.764;2023-05-21T10:01:49;98133.19;;;20.67;71.25
7433;BME280;32233;49.500;7.764;2023-05-21T10:04:17;98138.78;;;20.75;70.01
7433;BME280;32233;49.500;7.764;2023-05-21T10:06:45;98137.44;;;20.73;69.12
7433;BME280;32233;49.500;7.764;2023-05-21T10:09:14;98129.41;;;20.78;66.61
7433;BME280;32233;49.500;7.764;2023-05-21T10:11:43;98134.75;;;20.73;68.95
7433;BME280;32233;49.500;7.764;2023-05-21T10:14:19;98137.09;;;20.90;67.86
7433;BME280;32233;49.500;7.764;2023-05-21T10:16:47;98140.44;;;20.66;69.83
7433;BME280;32233;49.500;7.764;2023-05-21T10:19:15;98130.44;;;20.77;70.03
7433;BME280;32233;49.500;7.764;2023-05-21T10:21:42;98140.94;;;20.73;67.38
7433;BME280;32233;49.500;7.764;2023-05-21T10:24:10;98136.19;;;20.50;66.95
7433;BME280;32233;49.500;7.764;2023-05-21T10:26:37;98134.50;;;20.69;68.10
7433;BME280;32233;49.500;7.764;2023-05-21T10:29:05;98125.97;;;20.52;69.92
7433;BME280;32233;49.500;7.764;2023-05-21T10:31:33;98126.78;;;20.52;71.12
7433;BME280;32233;49.500;7.764;2023-05-21T10:34:02;98123.41;;;20.91;67.33
7433;BME280;32233;49.500;7.764;2023-05-21T10:36:31;98123.56;;;21.10;67.64
7433;BME280;32233;49.500;7.764;2023-05-21T10:38:59;98124.53;;;21.30;65.58
7433;BME280;32233;49.500;7.764;2023-05-21T10:41:33;98129.19;;;21.14;65.80
7433;BME280;32233;49.500;7.764;2023-05-21T10:50:34;98124.28;;;21.36;68.28
7433;BME280;32233;49.500;7.764;2023-05-21T10:56:25;98119.00;;;21.55;64.35
7433;BME280;32233;49.500;7.764;2023-05-21T10:59:04;98124.47;;;21.45;64.90
7433;BME280;32233;49.500;7.764;2023-05-21T11:01:35;98125.38;;;21.69;63.21
7433;BME280;32233;49.500;7.764;2023-05-21T11:04:03;98131.75;;;21.44;63.48
7433;BME280;32233;49.500;7.764;2023-05-21T11:06:31;98128.34;;;21.68;61.13
7433;BME280;32233;49.500;7.764;2023-05-21T11:09:10;98120.59;;;21.61;61.01
7433;BME280;32233;49.500;7.764;2023-05-21T11:11:44;98122.06;;;21.77;61.93
7433;BME280;32233;49.500;7.764;2023-05-21T11:14:39;98123.41;;;21.80;63.43
7433;BME280;32233;49.500;7.764;2023-05-21T11:17:14;98119.66;;;21.42;63.01
7433;BME280;32233;49.500;7.764;2023-05-21T11:19:43;98123.75;;;21.29;63.38
7433;BME280;32233;49.500;7.764;2023-05-21T11:22:24;98121.84;;;21.30;62.96
7433;BME280;32233;49.500;7.764;2023-05-21T11:24:53;98115.94;;;21.72;61.61
7433;BME280;32233;49.500;7.764;2023-05-21T11:27:29;98121.44;;;21.57;62.21
7433;BME280;32233;49.500;7.764;2023-05-21T11:29:58;98118.47;;;21.87;62.50
7433;BME280;32233;49.500;7.764;2023-05-21T11:32:24;98118.13;;;21.99;57.94
7433;BME280;32233;49.500;7.764;2023-05-21T11:34:51;98120.06;;;22.22;60.19
7433;BME280;32233;49.500;7.764;2023-05-21T11:39:47;98107.34;;;22.52;60.70
7433;BME280;32233;49.500;7.764;2023-05-21T11:42:36;98111.94;;;22.52;60.10
7433;BME280;32233;49.500;7.764;2023-05-21T11:45:04;98106.41;;;22.86;59.62
7433;BME280;32233;49.500;7.764;2023-05-21T11:47:31;98103.09;;;22.94;55.85
7433;BME280;32233;49.500;7.764;2023-05-21T11:50:00;98103.25;;;23.21;57.14
7433;BME280;32233;49.500;7.764;2023-05-21T11:52:28;98105.38;;;23.43;56.10
7433;BME280;32233;49.500;7.764;2023-05-21T11:54:56;98102.50;;;23.54;55.75
7433;BME280;32233;49.500;7.764;2023-05-21T11:57:26;98106.03;;;23.87;52.19
7433;BME280;32233;49.500;7.764;2023-05-21T11:59:56;98098.94;;;24.37;50.80
7433;BME280;32233;49.500;7.764;2023-05-21T12:02:25;98102.84;;;25.23;48.97
7433;BME280;32233;49.500;7.764;2023-05-21T12:04:54;98092.38;;;24.93;50.07
7433;BME280;32233;49.500;7.764;2023-05-21T12:07:27;98105.00;;;24.98;51.98
7433;BME280;32233;49.500;7.764;2023-05-21T12:09:57;98106.41;;;25.09;49.03
7433;BME280;32233;49.500;7.764;2023-05-21T12:12:25;98101.53;;;24.84;51.70
7433;BME280;32233;49.500;7.764;2023-05-21T12:14:57;98102.00;;;25.13;49.52
7433;BME280;32233;49.500;7.764;2023-05-21T12:17:25;98102.72;;;24.78;51.15
7433;BME280;32233;49.500;7.764;2023-05-21T12:19:56;98108.31;;;25.09;48.88
7433;BME280;32233;49.500;7.764;2023-05-21T12:22:23;98096.94;;;24.43;52.99
7433;BME280;32233;49.500;7.764;2023-05-21T12:24:50;98095.44;;;24.78;52.96
7433;BME280;32233;49.500;7.764;2023-05-21T12:27:20;98097.50;;;24.81;49.95
7433;BME280;32233;49.500;7.764;2023-05-21T12:29:50;98090.06;;;25.01;49.97
7433;BME280;32233;49.500;7.764;2023-05-21T12:32:19;98094.41;;;24.33;51.37
7433;BME280;32233;49.500;7.764;2023-05-21T12:34:51;98094.72;;;24.86;50.77
7433;BME280;32233;49.500;7.764;2023-05-21T12:37:23;98099.09;;;25.10;48.68
7433;BME280;32233;49.500;7.764;2023-05-21T12:39:52;98092.19;;;25.40;47.07
7433;BME280;32233;49.500;7.764;2023-05-21T12:42:32;98098.22;;;25.37;48.53
7433;BME280;32233;49.500;7.764;2023-05-21T12:45:06;98088.09;;;24.92;51.87
7433;BME280;32233;49.500;7.764;2023-05-21T12:47:33;98092.94;;;25.54;48.91
7433;BME280;32233;49.500;7.764;2023-05-21T12:50:01;98090.59;;;25.03;51.05
7433;BME280;32233;49.500;7.764;2023-05-21T12:52:28;98095.88;;;25.08;49.08
7433;BME280;32233;49.500;7.764;2023-05-21T12:54:58;98089.53;;;24.49;50.01
7433;BME280;32233;49.500;7.764;2023-05-21T12:57:26;98094.34;;;24.38;50.55
7433;BME280;32233;49.500;7.764;2023-05-21T12:59:58;98093.69;;;24.13;50.68
7433;BME280;32233;49.500;7.764;2023-05-21T13:02:29;98094.25;;;24.43;50.67
7433;BME280;32233;49.500;7.764;2023-05-21T13:04:57;98092.38;;;25.07;50.21
7433;BME280;32233;49.500;7.764;2023-05-21T13:07:25;98089.22;;;24.64;51.11
7433;BME280;32233;49.500;7.764;2023-05-21T13:09:53;98087.03;;;24.38;51.63
7433;BME280;32233;49.500;7.764;2023-05-21T13:12:21;98090.84;;;24.51;48.96
7433;BME280;32233;49.500;7.764;2023-05-21T13:14:52;98091.00;;;24.13;52.19
7433;BME280;32233;49.500;7.764;2023-05-21T13:17:20;98078.84;;;24.43;52.38
7433;BME280;32233;49.500;7.764;2023-05-21T13:20:09;98087.78;;;24.11;52.41
7433;BME280;32233;49.500;7.764;2023-05-21T13:22:40;98091.44;;;23.88;52.55
7433;BME280;32233;49.500;7.764;2023-05-21T13:27:41;98085.84;;;23.84;52.54
7433;BME280;32233;49.500;7.764;2023-05-21T13:30:09;98087.03;;;23.59;53.72
7433;BME280;32233;49.500;7.764;2023-05-21T13:32:38;98083.06;;;23.38;54.53